Terminal Aerodrome Forecast
Issued by NWS Melbourne, FL

Home | Current Version | Previous Version | Text Only | Print | Product List | Glossary On
Versions: 1 2 3 4 5 6 7 8 9 10 11 12 13 14 15
000
FTUS42 KMLB 290500 RRA
TAFMLB
TAF
KMLB 290547Z 2906/3006 20005KT P6SM FEW035 SCT050
      TEMPO 2909/2912 3SM BR BKN008
     FM291400 22008KT P6SM SCT020 SCT250
     FM292000 15007KT P6SM SCT040 SCT250
     FM300000 21005KT P6SM SCT040 BKN250=

USA.gov is the U.S. government's official web portal to all federal, state and local government web resources and services.